Terminal Aerodrome Forecast
Issued by NWS

Home | Current Version | Previous Version | Text Only | Print | Product List | Glossary On
Versions: 1 2 3 4 5 6 7 8 9 10 11 12 13 14 15 16 17 18 19 20 21 22
000
FTUS46 KSGX 201700
TAFCRQ
TAF
KCRQ 201720Z 2018/2118 VRB04KT P6SM FEW010
     FM202000 26007KT P6SM FEW012
     FM210300 VRB04KT 3SM BR OVC005
      TEMPO 2111/2115 2SM BR
     FM211500 VRB04KT 5SM BR BKN007
     FM211700 VRB04KT 6SM HZ SCT008=

USA.gov is the U.S. government's official web portal to all federal, state and local government web resources and services.